Hubbard, Ohio
Current Conditions -  °F | °C
As of 1:21 PM on Thursday 27 Nov 2014 (Local Time) from KYNG Reporting Station
Light Snow Light Snow  
Wind Chill: 23°   Ceiling: 2100
Heat Index: 32°   Visibility: 9mi
Dew Point: 26°   Wind: 12mph
Humidity: 79%   Direction: 310°NW
Pressure: 30.08"   Gusts: 18mph
Location:  41.16°N, 80.57°W
Report Text: KYNG 271821Z 31010G16KT 9SM -SN SCT009 OVC021 00/M03 A3008 RMK AO2 P0000 T00001033
Loading
Personal Weather Stations






























Interactive Weather Map New forecast layout! Learn more

10-Day Weather Forecast

Advertisements
Track Severe Weather on mobile